Terminal Aerodrome Forecast
Issued by NWS

Home | Current Version | Previous Version | Text Only | Print | Product List | Glossary On
Versions: 1 2 3 4 5 6 7 8 9 10 11 12 13 14 15 16 17 18 19 20 21 22 23 24 25 26 27 28 29 30 31 32 33 34 35 36 37 38 39 40 41 42 43 44 45 46 47 48 49
000
FTUS42 KMFL 181740
TAFTMB
TAF
KTMB 181740Z 1818/1918 18006KT P6SM SCT050 BKN060
     FM182000 15008KT P6SM VCTS SCT040CB BKN060 BKN250
     FM190000 17004KT P6SM SCT070
     FM190600 00000KT P6SM SCT250
     FM191200 16007KT P6SM SCT250
     FM191700 17011G17KT P6SM SCT250=

USA.gov is the U.S. government's official web portal to all federal, state and local government web resources and services.